sensor_id;sensor_type;location;lat;lon;timestamp;temperature;humidity
4635;DHT22;2330;48.158;11.816;2023-07-13T00:00:11;19.70;98.50
4635;DHT22;2330;48.158;11.816;2023-07-13T00:02:42;19.70;98.50
4635;DHT22;2330;48.158;11.816;2023-07-13T00:05:09;19.70;98.50
4635;DHT22;2330;48.158;11.816;2023-07-13T00:07:36;19.70;98.50
4635;DHT22;2330;48.158;11.816;2023-07-13T00:10:03;19.70;98.50
4635;DHT22;2330;48.158;11.816;2023-07-13T00:12:33;19.80;98.50
4635;DHT22;2330;48.158;11.816;2023-07-13T00:15:04;19.80;98.50
4635;DHT22;2330;48.158;11.816;2023-07-13T00:17:32;19.80;98.50
4635;DHT22;2330;48.158;11.816;2023-07-13T00:19:58;19.70;98.50
4635;DHT22;2330;48.158;11.816;2023-07-13T00:22:25;19.80;98.50
4635;DHT22;2330;48.158;11.816;2023-07-13T00:24:53;19.80;98.50
4635;DHT22;2330;48.158;11.816;2023-07-13T00:27:23;19.80;98.50
4635;DHT22;2330;48.158;11.816;2023-07-13T00:29:52;19.70;98.50
4635;DHT22;2330;48.158;11.816;2023-07-13T00:32:19;19.70;98.50
4635;DHT22;2330;48.158;11.816;2023-07-13T00:34:46;19.70;98.50
4635;DHT22;2330;48.158;11.816;2023-07-13T00:37:13;19.60;98.50
4635;DHT22;2330;48.158;11.816;2023-07-13T00:39:40;19.50;98.50
4635;DHT22;2330;48.158;11.816;2023-07-13T00:42:07;19.50;98.50
4635;DHT22;2330;48.158;11.816;2023-07-13T00:44:34;19.50;98.50
4635;DHT22;2330;48.158;11.816;2023-07-13T00:47:01;19.60;98.50
4635;DHT22;2330;48.158;11.816;2023-07-13T00:49:31;19.60;98.50
4635;DHT22;2330;48.158;11.816;2023-07-13T00:52:07;19.60;98.50
4635;DHT22;2330;48.158;11.816;2023-07-13T00:54:45;19.60;98.50
4635;DHT22;2330;48.158;11.816;2023-07-13T00:57:16;19.60;98.50
4635;DHT22;2330;48.158;11.816;2023-07-13T00:59:50;19.70;98.50
4635;DHT22;2330;48.158;11.816;2023-07-13T01:02:18;19.70;98.50
4635;DHT22;2330;48.158;11.816;2023-07-13T01:04:45;19.70;98.50
4635;DHT22;2330;48.158;11.816;2023-07-13T01:07:12;19.60;98.50
4635;DHT22;2330;48.158;11.816;2023-07-13T01:09:40;19.60;98.50
4635;DHT22;2330;48.158;11.816;2023-07-13T01:12:07;19.60;98.50
4635;DHT22;2330;48.158;11.816;2023-07-13T01:14:34;19.60;98.50
4635;DHT22;2330;48.158;11.816;2023-07-13T01:17:01;19.60;98.50
4635;DHT22;2330;48.158;11.816;2023-07-13T01:19:38;19.60;98.50
4635;DHT22;2330;48.158;11.816;2023-07-13T01:22:09;19.60;98.50
4635;DHT22;2330;48.158;11.816;2023-07-13T01:24:40;19.60;98.50
4635;DHT22;2330;48.158;11.816;2023-07-13T01:27:08;19.50;98.50
4635;DHT22;2330;48.158;11.816;2023-07-13T01:29:37;19.50;98.50
4635;DHT22;2330;48.158;11.816;2023-07-13T01:32:11;19.40;98.50
4635;DHT22;2330;48.158;11.816;2023-07-13T01:34:39;19.50;98.50
4635;DHT22;2330;48.158;11.816;2023-07-13T01:37:10;19.50;98.50
4635;DHT22;2330;48.158;11.816;2023-07-13T01:39:37;19.50;98.50
4635;DHT22;2330;48.158;11.816;2023-07-13T01:42:05;19.50;98.50
4635;DHT22;2330;48.158;11.816;2023-07-13T01:44:31;19.60;98.50
4635;DHT22;2330;48.158;11.816;2023-07-13T01:46:58;19.60;98.50
4635;DHT22;2330;48.158;11.816;2023-07-13T01:49:25;19.60;98.50
4635;DHT22;2330;48.158;11.816;2023-07-13T01:51:52;19.60;98.50
4635;DHT22;2330;48.158;11.816;2023-07-13T01:54:19;19.60;98.50
4635;DHT22;2330;48.158;11.816;2023-07-13T01:56:46;19.60;98.50
4635;DHT22;2330;48.158;11.816;2023-07-13T01:59:13;19.60;98.50
4635;DHT22;2330;48.158;11.816;2023-07-13T02:01:40;19.60;98.50
4635;DHT22;2330;48.158;11.816;2023-07-13T02:04:07;19.60;98.50
4635;DHT22;2330;48.158;11.816;2023-07-13T02:06:33;19.60;98.50
4635;DHT22;2330;48.158;11.816;2023-07-13T02:09:00;19.50;98.50
4635;DHT22;2330;48.158;11.816;2023-07-13T02:11:27;19.50;98.50
4635;DHT22;2330;48.158;11.816;2023-07-13T02:14:00;19.50;98.50
4635;DHT22;2330;48.158;11.816;2023-07-13T02:16:29;19.60;98.50
4635;DHT22;2330;48.158;11.816;2023-07-13T02:18:57;19.40;98.50
4635;DHT22;2330;48.158;11.816;2023-07-13T02:21:24;19.40;98.50
4635;DHT22;2330;48.158;11.816;2023-07-13T02:23:51;19.40;98.50
4635;DHT22;2330;48.158;11.816;2023-07-13T02:26:19;19.40;98.50
4635;DHT22;2330;48.158;11.816;2023-07-13T02:28:46;19.40;98.50
4635;DHT22;2330;48.158;11.816;2023-07-13T02:31:15;19.30;98.50
4635;DHT22;2330;48.158;11.816;2023-07-13T02:33:42;19.40;98.50
4635;DHT22;2330;48.158;11.816;2023-07-13T02:36:10;19.40;98.50
4635;DHT22;2330;48.158;11.816;2023-07-13T02:38:38;19.40;98.50
4635;DHT22;2330;48.158;11.816;2023-07-13T02:41:07;19.40;98.50
4635;DHT22;2330;48.158;11.816;2023-07-13T02:43:36;19.40;98.50
4635;DHT22;2330;48.158;11.816;2023-07-13T02:46:03;19.50;98.50
4635;DHT22;2330;48.158;11.816;2023-07-13T02:48:36;19.50;98.50
4635;DHT22;2330;48.158;11.816;2023-07-13T02:51:03;19.50;98.50
4635;DHT22;2330;48.158;11.816;2023-07-13T02:53:30;19.40;98.50
4635;DHT22;2330;48.158;11.816;2023-07-13T02:55:57;19.40;98.50
4635;DHT22;2330;48.158;11.816;2023-07-13T02:58:24;19.40;98.50
4635;DHT22;2330;48.158;11.816;2023-07-13T03:00:51;19.50;98.50
4635;DHT22;2330;48.158;11.816;2023-07-13T03:03:18;19.50;98.50
4635;DHT22;2330;48.158;11.816;2023-07-13T03:05:45;19.60;98.50
4635;DHT22;2330;48.158;11.816;2023-07-13T03:08:17;19.60;98.50
4635;DHT22;2330;48.158;11.816;2023-07-13T03:10:45;19.60;98.50
4635;DHT22;2330;48.158;11.816;2023-07-13T03:13:11;19.60;98.50
4635;DHT22;2330;48.158;11.816;2023-07-13T03:15:38;19.60;98.50
4635;DHT22;2330;48.158;11.816;2023-07-13T03:18:05;19.50;98.50
4635;DHT22;2330;48.158;11.816;2023-07-13T03:20:33;19.40;98.50
4635;DHT22;2330;48.158;11.816;2023-07-13T03:23:00;19.30;98.50
4635;DHT22;2330;48.158;11.816;2023-07-13T03:25:27;19.30;98.50
4635;DHT22;2330;48.158;11.816;2023-07-13T03:27:54;19.20;98.50
4635;DHT22;2330;48.158;11.816;2023-07-13T03:30:21;19.20;98.50
4635;DHT22;2330;48.158;11.816;2023-07-13T03:32:48;19.20;98.50
4635;DHT22;2330;48.158;11.816;2023-07-13T03:35:15;19.10;98.50
4635;DHT22;2330;48.158;11.816;2023-07-13T03:37:42;19.10;98.50
4635;DHT22;2330;48.158;11.816;2023-07-13T03:40:10;19.00;98.50
4635;DHT22;2330;48.158;11.816;2023-07-13T03:42:37;19.00;98.50
4635;DHT22;2330;48.158;11.816;2023-07-13T03:45:04;19.00;98.50
4635;DHT22;2330;48.158;11.816;2023-07-13T03:47:31;18.80;98.50
4635;DHT22;2330;48.158;11.816;2023-07-13T03:49:58;18.80;98.50
4635;DHT22;2330;48.158;11.816;2023-07-13T03:52:25;18.80;98.50
4635;DHT22;2330;48.158;11.816;2023-07-13T03:54:52;18.70;98.50
4635;DHT22;2330;48.158;11.816;2023-07-13T03:57:19;18.70;98.50
4635;DHT22;2330;48.158;11.816;2023-07-13T03:59:46;18.60;98.50
4635;DHT22;2330;48.158;11.816;2023-07-13T04:02:12;18.60;98.50
4635;DHT22;2330;48.158;11.816;2023-07-13T04:04:40;18.60;98.50
4635;DHT22;2330;48.158;11.816;2023-07-13T04:07:07;18.60;98.50
4635;DHT22;2330;48.158;11.816;2023-07-13T04:09:36;18.50;98.50
4635;DHT22;2330;48.158;11.816;2023-07-13T04:12:03;18.60;98.50
4635;DHT22;2330;48.158;11.816;2023-07-13T04:14:30;18.60;98.50
4635;DHT22;2330;48.158;11.816;2023-07-13T04:16:56;18.60;98.50
4635;DHT22;2330;48.158;11.816;2023-07-13T04:19:24;18.60;98.50
4635;DHT22;2330;48.158;11.816;2023-07-13T04:21:50;18.60;98.50
4635;DHT22;2330;48.158;11.816;2023-07-13T04:24:17;18.60;98.50
4635;DHT22;2330;48.158;11.816;2023-07-13T04:26:45;18.70;98.50
4635;DHT22;2330;48.158;11.816;2023-07-13T04:29:12;18.60;98.50
4635;DHT22;2330;48.158;11.816;2023-07-13T04:31:39;18.60;98.50
4635;DHT22;2330;48.158;11.816;2023-07-13T04:34:05;18.60;98.50
4635;DHT22;2330;48.158;11.816;2023-07-13T04:36:33;18.60;98.50
4635;DHT22;2330;48.158;11.816;2023-07-13T04:39:00;18.60;98.50
4635;DHT22;2330;48.158;11.816;2023-07-13T04:41:27;18.70;98.50
4635;DHT22;2330;48.158;11.816;2023-07-13T04:43:54;18.70;98.50
4635;DHT22;2330;48.158;11.816;2023-07-13T04:46:22;18.70;98.50
4635;DHT22;2330;48.158;11.816;2023-07-13T04:48:50;18.80;98.50
4635;DHT22;2330;48.158;11.816;2023-07-13T04:51:20;18.80;98.50
4635;DHT22;2330;48.158;11.816;2023-07-13T04:53:46;18.80;98.50
4635;DHT22;2330;48.158;11.816;2023-07-13T04:56:13;18.70;98.50
4635;DHT22;2330;48.158;11.816;2023-07-13T04:58:40;18.80;98.50
4635;DHT22;2330;48.158;11.816;2023-07-13T05:01:07;18.80;98.50
4635;DHT22;2330;48.158;11.816;2023-07-13T05:03:35;18.90;98.50
4635;DHT22;2330;48.158;11.816;2023-07-13T05:06:05;18.90;98.50
4635;DHT22;2330;48.158;11.816;2023-07-13T05:08:32;18.90;98.50
4635;DHT22;2330;48.158;11.816;2023-07-13T05:11:00;18.90;98.50
4635;DHT22;2330;48.158;11.816;2023-07-13T05:13:28;19.00;98.50
4635;DHT22;2330;48.158;11.816;2023-07-13T05:15:58;19.00;98.50
4635;DHT22;2330;48.158;11.816;2023-07-13T05:18:25;19.00;98.50
4635;DHT22;2330;48.158;11.816;2023-07-13T05:23:26;18.90;98.50
4635;DHT22;2330;48.158;11.816;2023-07-13T05:25:53;18.90;98.50
4635;DHT22;2330;48.158;11.816;2023-07-13T05:28:21;18.90;98.50
4635;DHT22;2330;48.158;11.816;2023-07-13T05:30:49;19.00;98.50
4635;DHT22;2330;48.158;11.816;2023-07-13T05:33:17;18.90;98.50
4635;DHT22;2330;48.158;11.816;2023-07-13T05:35:44;18.90;98.50
4635;DHT22;2330;48.158;11.816;2023-07-13T05:38:11;18.90;98.50
4635;DHT22;2330;48.158;11.816;2023-07-13T05:40:37;19.00;98.50
4635;DHT22;2330;48.158;11.816;2023-07-13T05:43:04;18.90;98.50
4635;DHT22;2330;48.158;11.816;2023-07-13T05:45:31;18.90;98.50
4635;DHT22;2330;48.158;11.816;2023-07-13T05:47:58;19.00;98.50
4635;DHT22;2330;48.158;11.816;2023-07-13T05:50:26;19.00;98.50
4635;DHT22;2330;48.158;11.816;2023-07-13T05:52:53;19.00;98.50
4635;DHT22;2330;48.158;11.816;2023-07-13T05:55:20;19.00;98.50
4635;DHT22;2330;48.158;11.816;2023-07-13T05:57:47;19.00;98.50
4635;DHT22;2330;48.158;11.816;2023-07-13T06:00:14;19.10;98.50
4635;DHT22;2330;48.158;11.816;2023-07-13T06:02:42;19.10;98.50
4635;DHT22;2330;48.158;11.816;2023-07-13T06:05:09;19.30;98.50
4635;DHT22;2330;48.158;11.816;2023-07-13T06:07:36;19.40;98.50
4635;DHT22;2330;48.158;11.816;2023-07-13T06:10:03;19.40;98.50
4635;DHT22;2330;48.158;11.816;2023-07-13T06:12:30;19.40;98.50
4635;DHT22;2330;48.158;11.816;2023-07-13T06:14:56;19.50;98.50
4635;DHT22;2330;48.158;11.816;2023-07-13T06:17:23;19.50;98.50
4635;DHT22;2330;48.158;11.816;2023-07-13T06:19:50;19.70;98.50
4635;DHT22;2330;48.158;11.816;2023-07-13T06:22:17;19.70;98.50
4635;DHT22;2330;48.158;11.816;2023-07-13T06:24:44;19.70;98.50
4635;DHT22;2330;48.158;11.816;2023-07-13T06:27:11;19.80;98.50
4635;DHT22;2330;48.158;11.816;2023-07-13T06:29:38;19.80;98.50
4635;DHT22;2330;48.158;11.816;2023-07-13T06:32:05;19.80;98.50
4635;DHT22;2330;48.158;11.816;2023-07-13T06:34:32;19.80;98.50
4635;DHT22;2330;48.158;11.816;2023-07-13T06:36:59;19.70;98.50
4635;DHT22;2330;48.158;11.816;2023-07-13T06:39:26;19.70;98.50
4635;DHT22;2330;48.158;11.816;2023-07-13T06:41:53;19.70;98.50
4635;DHT22;2330;48.158;11.816;2023-07-13T06:44:19;19.90;98.50
4635;DHT22;2330;48.158;11.816;2023-07-13T06:46:46;19.90;98.50
4635;DHT22;2330;48.158;11.816;2023-07-13T06:49:13;20.00;98.50
4635;DHT22;2330;48.158;11.816;2023-07-13T06:51:40;20.00;98.50
4635;DHT22;2330;48.158;11.816;2023-07-13T06:54:06;20.10;98.50
4635;DHT22;2330;48.158;11.816;2023-07-13T06:56:33;20.20;98.50
4635;DHT22;2330;48.158;11.816;2023-07-13T06:59:00;20.20;98.50
4635;DHT22;2330;48.158;11.816;2023-07-13T07:01:27;20.20;98.50
4635;DHT22;2330;48.158;11.816;2023-07-13T07:03:54;20.30;98.50
4635;DHT22;2330;48.158;11.816;2023-07-13T07:06:22;20.30;98.50
4635;DHT22;2330;48.158;11.816;2023-07-13T07:08:52;20.30;98.50
4635;DHT22;2330;48.158;11.816;2023-07-13T07:11:22;20.30;98.50
4635;DHT22;2330;48.158;11.816;2023-07-13T07:13:52;20.30;98.50
4635;DHT22;2330;48.158;11.816;2023-07-13T07:16:20;20.40;98.50
4635;DHT22;2330;48.158;11.816;2023-07-13T07:18:47;20.30;98.50
4635;DHT22;2330;48.158;11.816;2023-07-13T07:21:14;20.30;98.50
4635;DHT22;2330;48.158;11.816;2023-07-13T07:23:42;20.30;98.50
4635;DHT22;2330;48.158;11.816;2023-07-13T07:26:09;20.20;98.50
4635;DHT22;2330;48.158;11.816;2023-07-13T07:28:37;20.20;98.50
4635;DHT22;2330;48.158;11.816;2023-07-13T07:31:07;20.20;98.50
4635;DHT22;2330;48.158;11.816;2023-07-13T07:33:36;20.30;98.50
4635;DHT22;2330;48.158;11.816;2023-07-13T07:36:03;20.30;98.50
4635;DHT22;2330;48.158;11.816;2023-07-13T07:38:33;20.30;98.50
4635;DHT22;2330;48.158;11.816;2023-07-13T07:41:03;20.40;98.50
4635;DHT22;2330;48.158;11.816;2023-07-13T07:43:34;20.50;98.50
4635;DHT22;2330;48.158;11.816;2023-07-13T07:46:01;20.50;98.50
4635;DHT22;2330;48.158;11.816;2023-07-13T07:48:30;20.60;98.50
4635;DHT22;2330;48.158;11.816;2023-07-13T07:50:56;20.70;98.50
4635;DHT22;2330;48.158;11.816;2023-07-13T07:53:23;20.70;98.50
4635;DHT22;2330;48.158;11.816;2023-07-13T07:55:50;20.80;98.50
4635;DHT22;2330;48.158;11.816;2023-07-13T07:58:21;20.70;98.50
4635;DHT22;2330;48.158;11.816;2023-07-13T08:00:50;20.60;98.50
4635;DHT22;2330;48.158;11.816;2023-07-13T08:03:20;20.30;98.50
4635;DHT22;2330;48.158;11.816;2023-07-13T08:05:53;20.40;98.50
4635;DHT22;2330;48.158;11.816;2023-07-13T08:08:23;20.30;98.50
4635;DHT22;2330;48.158;11.816;2023-07-13T08:10:50;20.40;98.50
4635;DHT22;2330;48.158;11.816;2023-07-13T08:13:16;20.40;98.50
4635;DHT22;2330;48.158;11.816;2023-07-13T08:15:44;20.30;98.50
4635;DHT22;2330;48.158;11.816;2023-07-13T08:18:11;20.40;98.50
4635;DHT22;2330;48.158;11.816;2023-07-13T08:20:38;20.30;98.50
4635;DHT22;2330;48.158;11.816;2023-07-13T08:23:07;20.30;98.50
4635;DHT22;2330;48.158;11.816;2023-07-13T08:25:35;20.10;98.50
4635;DHT22;2330;48.158;11.816;2023-07-13T08:28:05;19.80;98.50
4635;DHT22;2330;48.158;11.816;2023-07-13T08:30:32;19.70;98.50
4635;DHT22;2330;48.158;11.816;2023-07-13T08:32:59;19.70;98.50
4635;DHT22;2330;48.158;11.816;2023-07-13T08:35:26;19.70;98.50
4635;DHT22;2330;48.158;11.816;2023-07-13T08:37:52;19.60;98.50
4635;DHT22;2330;48.158;11.816;2023-07-13T08:40:24;19.50;98.50
4635;DHT22;2330;48.158;11.816;2023-07-13T08:42:57;19.60;98.50
4635;DHT22;2330;48.158;11.816;2023-07-13T08:48:26;19.70;98.50
4635;DHT22;2330;48.158;11.816;2023-07-13T08:53:36;19.70;98.50
4635;DHT22;2330;48.158;11.816;2023-07-13T08:56:07;19.80;98.50
4635;DHT22;2330;48.158;11.816;2023-07-13T08:58:36;19.90;98.50
4635;DHT22;2330;48.158;11.816;2023-07-13T09:01:12;20.00;98.50
4635;DHT22;2330;48.158;11.816;2023-07-13T09:04:05;20.00;98.50
4635;DHT22;2330;48.158;11.816;2023-07-13T09:06:55;20.00;98.50
4635;DHT22;2330;48.158;11.816;2023-07-13T09:12:56;20.10;98.50
4635;DHT22;2330;48.158;11.816;2023-07-13T09:15:42;20.20;98.50
4635;DHT22;2330;48.158;11.816;2023-07-13T09:18:21;19.90;98.50
4635;DHT22;2330;48.158;11.816;2023-07-13T09:20:59;19.80;98.50
4635;DHT22;2330;48.158;11.816;2023-07-13T09:23:30;19.70;98.50
4635;DHT22;2330;48.158;11.816;2023-07-13T09:26:04;19.70;98.50
4635;DHT22;2330;48.158;11.816;2023-07-13T09:28:38;19.70;98.50
4635;DHT22;2330;48.158;11.816;2023-07-13T09:31:18;19.70;98.50
4635;DHT22;2330;48.158;11.816;2023-07-13T09:33:46;19.70;97.20
4635;DHT22;2330;48.158;11.816;2023-07-13T09:36:28;19.70;96.00
4635;DHT22;2330;48.158;11.816;2023-07-13T09:41:47;19.90;94.80
4635;DHT22;2330;48.158;11.816;2023-07-13T09:44:17;20.00;94.60
4635;DHT22;2330;48.158;11.816;2023-07-13T09:46:52;20.10;94.60
4635;DHT22;2330;48.158;11.816;2023-07-13T09:49:31;20.40;94.20
4635;DHT22;2330;48.158;11.816;2023-07-13T09:52:02;20.50;93.90
4635;DHT22;2330;48.158;11.816;2023-07-13T09:54:34;20.60;94.30
4635;DHT22;2330;48.158;11.816;2023-07-13T09:57:03;20.80;91.50
4635;DHT22;2330;48.158;11.816;2023-07-13T09:59:33;20.80;91.20
4635;DHT22;2330;48.158;11.816;2023-07-13T10:02:01;20.80;91.00
4635;DHT22;2330;48.158;11.816;2023-07-13T10:04:33;20.80;91.30
4635;DHT22;2330;48.158;11.816;2023-07-13T10:07:08;20.80;89.90
4635;DHT22;2330;48.158;11.816;2023-07-13T10:09:56;20.80;89.80
4635;DHT22;2330;48.158;11.816;2023-07-13T10:12:24;21.00;89.70
4635;DHT22;2330;48.158;11.816;2023-07-13T10:14:54;21.10;90.40
4635;DHT22;2330;48.158;11.816;2023-07-13T10:17:38;21.20;89.30
4635;DHT22;2330;48.158;11.816;2023-07-13T10:20:07;21.30;88.70
4635;DHT22;2330;48.158;11.816;2023-07-13T10:23:05;21.40;86.80
4635;DHT22;2330;48.158;11.816;2023-07-13T10:25:39;21.50;88.70
4635;DHT22;2330;48.158;11.816;2023-07-13T10:28:37;21.80;87.60
4635;DHT22;2330;48.158;11.816;2023-07-13T10:31:12;22.00;86.80
4635;DHT22;2330;48.158;11.816;2023-07-13T10:33:40;22.10;81.60
4635;DHT22;2330;48.158;11.816;2023-07-13T10:36:14;22.00;82.40
4635;DHT22;2330;48.158;11.816;2023-07-13T10:38:46;22.00;80.80
4635;DHT22;2330;48.158;11.816;2023-07-13T10:41:19;22.30;80.90
4635;DHT22;2330;48.158;11.816;2023-07-13T10:43:50;22.60;78.50
4635;DHT22;2330;48.158;11.816;2023-07-13T10:46:20;23.00;79.00
4635;DHT22;2330;48.158;11.816;2023-07-13T10:48:53;23.30;76.70
4635;DHT22;2330;48.158;11.816;2023-07-13T10:51:21;23.50;77.80
4635;DHT22;2330;48.158;11.816;2023-07-13T10:54:16;24.10;76.90
4635;DHT22;2330;48.158;11.816;2023-07-13T10:56:46;24.50;78.80
4635;DHT22;2330;48.158;11.816;2023-07-13T10:59:26;24.80;76.60
4635;DHT22;2330;48.158;11.816;2023-07-13T11:02:00;24.90;76.40
4635;DHT22;2330;48.158;11.816;2023-07-13T11:04:44;25.00;76.50
4635;DHT22;2330;48.158;11.816;2023-07-13T11:07:27;25.20;75.50
4635;DHT22;2330;48.158;11.816;2023-07-13T11:10:00;25.30;75.50
4635;DHT22;2330;48.158;11.816;2023-07-13T11:12:51;25.30;72.80
4635;DHT22;2330;48.158;11.816;2023-07-13T11:15:44;25.40;73.00
4635;DHT22;2330;48.158;11.816;2023-07-13T11:18:23;25.30;73.60
4635;DHT22;2330;48.158;11.816;2023-07-13T11:20:52;25.10;73.20
4635;DHT22;2330;48.158;11.816;2023-07-13T11:23:27;24.90;74.20
4635;DHT22;2330;48.158;11.816;2023-07-13T11:25:54;24.50;75.00
4635;DHT22;2330;48.158;11.816;2023-07-13T11:28:23;24.50;76.20
4635;DHT22;2330;48.158;11.816;2023-07-13T11:36:16;24.30;77.40
4635;DHT22;2330;48.158;11.816;2023-07-13T11:41:53;24.40;74.60
4635;DHT22;2330;48.158;11.816;2023-07-13T11:44:25;25.10;72.80
4635;DHT22;2330;48.158;11.816;2023-07-13T11:46:55;25.20;74.80
4635;DHT22;2330;48.158;11.816;2023-07-13T11:49:26;25.10;75.40
4635;DHT22;2330;48.158;11.816;2023-07-13T11:51:54;25.10;76.70
4635;DHT22;2330;48.158;11.816;2023-07-13T11:54:33;25.30;76.60
4635;DHT22;2330;48.158;11.816;2023-07-13T11:57:29;25.50;73.60
4635;DHT22;2330;48.158;11.816;2023-07-13T11:59:59;25.70;73.90
4635;DHT22;2330;48.158;11.816;2023-07-13T12:02:33;26.30;71.00
4635;DHT22;2330;48.158;11.816;2023-07-13T12:05:01;26.60;70.30
4635;DHT22;2330;48.158;11.816;2023-07-13T12:07:31;26.80;71.90
4635;DHT22;2330;48.158;11.816;2023-07-13T12:10:03;27.10;71.90
4635;DHT22;2330;48.158;11.816;2023-07-13T12:12:37;27.20;70.60
4635;DHT22;2330;48.158;11.816;2023-07-13T12:15:07;26.90;71.30
4635;DHT22;2330;48.158;11.816;2023-07-13T12:17:35;27.10;71.40
4635;DHT22;2330;48.158;11.816;2023-07-13T12:20:55;27.10;68.90
4635;DHT22;2330;48.158;11.816;2023-07-13T12:23:01;27.10;68.20
4635;DHT22;2330;48.158;11.816;2023-07-13T12:25:32;27.00;69.20
4635;DHT22;2330;48.158;11.816;2023-07-13T12:27:59;27.10;69.80
4635;DHT22;2330;48.158;11.816;2023-07-13T12:30:48;26.70;70.40
4635;DHT22;2330;48.158;11.816;2023-07-13T12:33:16;27.20;70.30
4635;DHT22;2330;48.158;11.816;2023-07-13T12:35:51;27.20;68.90
4635;DHT22;2330;48.158;11.816;2023-07-13T12:38:24;26.60;69.50
4635;DHT22;2330;48.158;11.816;2023-07-13T12:40:52;26.60;70.70
4635;DHT22;2330;48.158;11.816;2023-07-13T12:43:22;26.50;71.60
4635;DHT22;2330;48.158;11.816;2023-07-13T12:45:58;26.40;70.80
4635;DHT22;2330;48.158;11.816;2023-07-13T12:48:26;26.40;70.90
4635;DHT22;2330;48.158;11.816;2023-07-13T12:51:13;26.40;71.20
4635;DHT22;2330;48.158;11.816;2023-07-13T12:53:43;26.60;70.80
4635;DHT22;2330;48.158;11.816;2023-07-13T12:56:21;26.80;72.30
4635;DHT22;2330;48.158;11.816;2023-07-13T12:58:56;26.80;71.80
4635;DHT22;2330;48.158;11.816;2023-07-13T13:01:27;26.80;70.60
4635;DHT22;2330;48.158;11.816;2023-07-13T13:03:54;26.60;71.70
4635;DHT22;2330;48.158;11.816;2023-07-13T13:06:25;26.60;72.40
4635;DHT22;2330;48.158;11.816;2023-07-13T13:08:57;26.90;72.90
4635;DHT22;2330;48.158;11.816;2023-07-13T13:11:26;26.90;71.40
4635;DHT22;2330;48.158;11.816;2023-07-13T13:13:53;26.70;72.30
4635;DHT22;2330;48.158;11.816;2023-07-13T13:16:40;26.50;72.10
4635;DHT22;2330;48.158;11.816;2023-07-13T13:19:19;26.10;73.20
4635;DHT22;2330;48.158;11.816;2023-07-13T13:21:48;26.20;74.00
4635;DHT22;2330;48.158;11.816;2023-07-13T13:24:21;26.60;74.60
4635;DHT22;2330;48.158;11.816;2023-07-13T13:26:51;26.70;72.50
4635;DHT22;2330;48.158;11.816;2023-07-13T13:29:23;26.60;73.10
4635;DHT22;2330;48.158;11.816;2023-07-13T13:31:52;26.70;73.30
4635;DHT22;2330;48.158;11.816;2023-07-13T13:34:20;27.10;74.20
4635;DHT22;2330;48.158;11.816;2023-07-13T13:36:50;27.30;72.10
4635;DHT22;2330;48.158;11.816;2023-07-13T13:39:33;27.40;72.50
4635;DHT22;2330;48.158;11.816;2023-07-13T13:42:00;27.20;71.90
4635;DHT22;2330;48.158;11.816;2023-07-13T13:44:27;26.90;72.50
4635;DHT22;2330;48.158;11.816;2023-07-13T13:46:55;26.30;74.00
4635;DHT22;2330;48.158;11.816;2023-07-13T13:49:24;26.10;74.20
4635;DHT22;2330;48.158;11.816;2023-07-13T13:51:53;26.00;74.70
4635;DHT22;2330;48.158;11.816;2023-07-13T13:54:22;26.10;73.90
4635;DHT22;2330;48.158;11.816;2023-07-13T13:56:51;26.10;72.90
4635;DHT22;2330;48.158;11.816;2023-07-13T13:59:18;25.90;72.50
4635;DHT22;2330;48.158;11.816;2023-07-13T14:01:47;25.70;74.00
4635;DHT22;2330;48.158;11.816;2023-07-13T14:04:20;25.60;73.90
4635;DHT22;2330;48.158;11.816;2023-07-13T14:06:48;25.40;72.60
4635;DHT22;2330;48.158;11.816;2023-07-13T14:09:17;25.50;72.50
4635;DHT22;2330;48.158;11.816;2023-07-13T14:11:46;25.70;72.50
4635;DHT22;2330;48.158;11.816;2023-07-13T14:14:19;25.60;72.40
4635;DHT22;2330;48.158;11.816;2023-07-13T14:16:47;25.30;73.90
4635;DHT22;2330;48.158;11.816;2023-07-13T14:19:20;25.40;74.50
4635;DHT22;2330;48.158;11.816;2023-07-13T14:21:47;25.10;72.90
4635;DHT22;2330;48.158;11.816;2023-07-13T14:24:16;25.10;73.90
4635;DHT22;2330;48.158;11.816;2023-07-13T14:26:43;25.20;74.50
4635;DHT22;2330;48.158;11.816;2023-07-13T14:29:18;25.10;74.30
4635;DHT22;2330;48.158;11.816;2023-07-13T14:31:50;25.10;74.50
4635;DHT22;2330;48.158;11.816;2023-07-13T14:34:17;24.90;73.80
4635;DHT22;2330;48.158;11.816;2023-07-13T14:36:47;25.10;73.30
4635;DHT22;2330;48.158;11.816;2023-07-13T14:39:18;25.30;72.70
4635;DHT22;2330;48.158;11.816;2023-07-13T14:41:50;25.50;73.70
4635;DHT22;2330;48.158;11.816;2023-07-13T14:44:22;25.70;73.60
4635;DHT22;2330;48.158;11.816;2023-07-13T14:46:51;25.70;72.90
4635;DHT22;2330;48.158;11.816;2023-07-13T14:51:58;25.50;72.90
4635;DHT22;2330;48.158;11.816;2023-07-13T14:54:25;25.60;73.00
4635;DHT22;2330;48.158;11.816;2023-07-13T14:56:52;25.80;72.80
4635;DHT22;2330;48.158;11.816;2023-07-13T14:59:19;26.20;73.70
4635;DHT22;2330;48.158;11.816;2023-07-13T15:01:48;26.50;71.70
4635;DHT22;2330;48.158;11.816;2023-07-13T15:04:16;26.10;72.60
4635;DHT22;2330;48.158;11.816;2023-07-13T15:07:01;25.80;72.80
4635;DHT22;2330;48.158;11.816;2023-07-13T15:09:31;25.60;72.70
4635;DHT22;2330;48.158;11.816;2023-07-13T15:11:58;25.80;73.10
4635;DHT22;2330;48.158;11.816;2023-07-13T15:14:26;26.10;73.10
4635;DHT22;2330;48.158;11.816;2023-07-13T15:16:56;26.10;72.70
4635;DHT22;2330;48.158;11.816;2023-07-13T15:19:23;25.90;72.60
4635;DHT22;2330;48.158;11.816;2023-07-13T15:21:53;25.90;72.80
4635;DHT22;2330;48.158;11.816;2023-07-13T15:24:21;26.20;72.80
4635;DHT22;2330;48.158;11.816;2023-07-13T15:26:48;26.20;71.90
4635;DHT22;2330;48.158;11.816;2023-07-13T15:29:16;26.30;71.90
4635;DHT22;2330;48.158;11.816;2023-07-13T15:31:44;26.40;71.60
4635;DHT22;2330;48.158;11.816;2023-07-13T15:34:13;25.80;71.50
4635;DHT22;2330;48.158;11.816;2023-07-13T15:36:40;25.70;73.50
4635;DHT22;2330;48.158;11.816;2023-07-13T15:39:16;25.60;72.50
4635;DHT22;2330;48.158;11.816;2023-07-13T15:41:44;25.70;72.60
4635;DHT22;2330;48.158;11.816;2023-07-13T15:44:29;25.70;73.20
4635;DHT22;2330;48.158;11.816;2023-07-13T15:46:57;25.80;73.10
4635;DHT22;2330;48.158;11.816;2023-07-13T15:49:27;25.70;71.80
4635;DHT22;2330;48.158;11.816;2023-07-13T15:51:54;25.40;72.40
4635;DHT22;2330;48.158;11.816;2023-07-13T15:54:22;25.30;73.80
4635;DHT22;2330;48.158;11.816;2023-07-13T15:56:55;25.40;73.20
4635;DHT22;2330;48.158;11.816;2023-07-13T15:59:27;25.20;74.00
4635;DHT22;2330;48.158;11.816;2023-07-13T16:01:53;25.10;74.70
4635;DHT22;2330;48.158;11.816;2023-07-13T16:04:20;24.90;74.00
4635;DHT22;2330;48.158;11.816;2023-07-13T16:06:47;24.80;74.20
4635;DHT22;2330;48.158;11.816;2023-07-13T16:09:19;24.80;75.40
4635;DHT22;2330;48.158;11.816;2023-07-13T16:11:47;24.90;75.20
4635;DHT22;2330;48.158;11.816;2023-07-13T16:14:15;24.90;75.20
4635;DHT22;2330;48.158;11.816;2023-07-13T16:16:43;24.90;74.80
4635;DHT22;2330;48.158;11.816;2023-07-13T16:19:10;24.90;74.20
4635;DHT22;2330;48.158;11.816;2023-07-13T16:21:44;24.70;74.50
4635;DHT22;2330;48.158;11.816;2023-07-13T16:24:20;24.70;74.90
4635;DHT22;2330;48.158;11.816;2023-07-13T16:26:48;24.60;74.20